sensor_id;sensor_type;location;lat;lon;timestamp;P1;durP1;ratioP1;P2;durP2;ratioP2
15307;SDS011;7755;52.208;6.964;2023-06-22T00:02:15;10.83;;;10.00;;
15307;SDS011;7755;52.208;6.964;2023-06-22T00:06:19;12.27;;;11.07;;
15307;SDS011;7755;52.208;6.964;2023-06-22T00:10:22;11.90;;;10.83;;
15307;SDS011;7755;52.208;6.964;2023-06-22T00:14:24;13.63;;;12.20;;
15307;SDS011;7755;52.208;6.964;2023-06-22T00:18:27;12.10;;;11.00;;
15307;SDS011;7755;52.208;6.964;2023-06-22T00:22:33;13.43;;;12.13;;
15307;SDS011;7755;52.208;6.964;2023-06-22T00:26:40;13.20;;;12.10;;
15307;SDS011;7755;52.208;6.964;2023-06-22T00:30:44;15.37;;;13.90;;
15307;SDS011;7755;52.208;6.964;2023-06-22T00:34:47;12.73;;;11.63;;
15307;SDS011;7755;52.208;6.964;2023-06-22T00:38:51;15.80;;;14.40;;
15307;SDS011;7755;52.208;6.964;2023-06-22T00:42:54;15.90;;;14.40;;
15307;SDS011;7755;52.208;6.964;2023-06-22T00:46:58;15.03;;;13.63;;
15307;SDS011;7755;52.208;6.964;2023-06-22T00:51:04;14.90;;;13.70;;
15307;SDS011;7755;52.208;6.964;2023-06-22T00:55:09;15.07;;;13.87;;
15307;SDS011;7755;52.208;6.964;2023-06-22T00:59:12;15.20;;;13.90;;
15307;SDS011;7755;52.208;6.964;2023-06-22T01:03:19;13.27;;;12.17;;
15307;SDS011;7755;52.208;6.964;2023-06-22T01:07:24;15.23;;;13.70;;
15307;SDS011;7755;52.208;6.964;2023-06-22T01:11:37;14.00;;;12.80;;
15307;SDS011;7755;52.208;6.964;2023-06-22T01:15:49;15.77;;;14.33;;
15307;SDS011;7755;52.208;6.964;2023-06-22T01:19:55;16.80;;;15.10;;
15307;SDS011;7755;52.208;6.964;2023-06-22T01:24:02;19.80;;;18.10;;
15307;SDS011;7755;52.208;6.964;2023-06-22T01:32:46;17.73;;;16.13;;
15307;SDS011;7755;52.208;6.964;2023-06-22T01:36:51;17.47;;;15.67;;
15307;SDS011;7755;52.208;6.964;2023-06-22T01:40:55;17.93;;;16.33;;
15307;SDS011;7755;52.208;6.964;2023-06-22T01:45:00;19.33;;;17.53;;
15307;SDS011;7755;52.208;6.964;2023-06-22T01:49:05;18.60;;;16.87;;
15307;SDS011;7755;52.208;6.964;2023-06-22T01:53:10;18.47;;;16.87;;
15307;SDS011;7755;52.208;6.964;2023-06-22T01:57:13;16.63;;;15.13;;
15307;SDS011;7755;52.208;6.964;2023-06-22T02:01:19;19.50;;;17.70;;
15307;SDS011;7755;52.208;6.964;2023-06-22T02:05:29;18.97;;;17.27;;
15307;SDS011;7755;52.208;6.964;2023-06-22T02:09:37;21.33;;;19.43;;
15307;SDS011;7755;52.208;6.964;2023-06-22T02:13:44;18.57;;;16.97;;
15307;SDS011;7755;52.208;6.964;2023-06-22T02:17:48;19.00;;;17.33;;
15307;SDS011;7755;52.208;6.964;2023-06-22T02:21:52;21.60;;;19.67;;
15307;SDS011;7755;52.208;6.964;2023-06-22T02:25:55;19.97;;;18.20;;
15307;SDS011;7755;52.208;6.964;2023-06-22T02:29:58;19.93;;;18.13;;
15307;SDS011;7755;52.208;6.964;2023-06-22T02:34:01;20.33;;;18.43;;
15307;SDS011;7755;52.208;6.964;2023-06-22T02:38:07;20.17;;;18.30;;
15307;SDS011;7755;52.208;6.964;2023-06-22T02:42:10;23.57;;;21.37;;
15307;SDS011;7755;52.208;6.964;2023-06-22T02:46:16;20.50;;;18.50;;
15307;SDS011;7755;52.208;6.964;2023-06-22T02:50:19;23.40;;;21.27;;
15307;SDS011;7755;52.208;6.964;2023-06-22T02:54:24;21.10;;;19.10;;
15307;SDS011;7755;52.208;6.964;2023-06-22T02:58:28;22.37;;;20.27;;
15307;SDS011;7755;52.208;6.964;2023-06-22T03:02:31;24.50;;;22.10;;
15307;SDS011;7755;52.208;6.964;2023-06-22T03:06:34;22.97;;;20.77;;
15307;SDS011;7755;52.208;6.964;2023-06-22T03:10:39;25.50;;;23.10;;
15307;SDS011;7755;52.208;6.964;2023-06-22T03:14:41;27.47;;;24.80;;
15307;SDS011;7755;52.208;6.964;2023-06-22T03:18:44;23.00;;;20.90;;
15307;SDS011;7755;52.208;6.964;2023-06-22T03:22:47;22.27;;;20.23;;
15307;SDS011;7755;52.208;6.964;2023-06-22T03:26:52;23.63;;;21.53;;
15307;SDS011;7755;52.208;6.964;2023-06-22T03:30:56;23.97;;;21.73;;
15307;SDS011;7755;52.208;6.964;2023-06-22T03:35:00;25.00;;;22.70;;
15307;SDS011;7755;52.208;6.964;2023-06-22T03:39:05;23.27;;;21.20;;
15307;SDS011;7755;52.208;6.964;2023-06-22T03:43:09;23.70;;;21.47;;
15307;SDS011;7755;52.208;6.964;2023-06-22T03:47:12;24.27;;;22.03;;
15307;SDS011;7755;52.208;6.964;2023-06-22T03:51:15;26.77;;;24.20;;
15307;SDS011;7755;52.208;6.964;2023-06-22T03:55:19;23.33;;;21.03;;
15307;SDS011;7755;52.208;6.964;2023-06-22T03:59:23;22.37;;;20.37;;
15307;SDS011;7755;52.208;6.964;2023-06-22T04:03:26;22.43;;;20.23;;
15307;SDS011;7755;52.208;6.964;2023-06-22T04:07:30;27.73;;;25.07;;
15307;SDS011;7755;52.208;6.964;2023-06-22T04:11:33;25.03;;;22.73;;
15307;SDS011;7755;52.208;6.964;2023-06-22T04:15:37;23.50;;;21.30;;
15307;SDS011;7755;52.208;6.964;2023-06-22T04:19:39;20.97;;;18.83;;
15307;SDS011;7755;52.208;6.964;2023-06-22T04:23:42;23.97;;;21.70;;
15307;SDS011;7755;52.208;6.964;2023-06-22T04:27:47;21.87;;;19.83;;
15307;SDS011;7755;52.208;6.964;2023-06-22T04:31:51;22.90;;;20.80;;
15307;SDS011;7755;52.208;6.964;2023-06-22T04:35:54;22.90;;;20.80;;
15307;SDS011;7755;52.208;6.964;2023-06-22T04:39:58;20.20;;;18.37;;
15307;SDS011;7755;52.208;6.964;2023-06-22T04:44:02;15.13;;;13.67;;
15307;SDS011;7755;52.208;6.964;2023-06-22T04:48:07;21.53;;;19.53;;
15307;SDS011;7755;52.208;6.964;2023-06-22T04:52:11;23.10;;;20.97;;
15307;SDS011;7755;52.208;6.964;2023-06-22T04:56:21;22.43;;;20.20;;
15307;SDS011;7755;52.208;6.964;2023-06-22T05:00:29;22.10;;;20.17;;
15307;SDS011;7755;52.208;6.964;2023-06-22T05:04:34;25.57;;;23.10;;
15307;SDS011;7755;52.208;6.964;2023-06-22T05:08:41;21.13;;;19.13;;
15307;SDS011;7755;52.208;6.964;2023-06-22T05:12:45;21.70;;;19.80;;
15307;SDS011;7755;52.208;6.964;2023-06-22T05:16:49;21.33;;;19.43;;
15307;SDS011;7755;52.208;6.964;2023-06-22T05:20:54;20.10;;;18.10;;
15307;SDS011;7755;52.208;6.964;2023-06-22T05:24:57;21.47;;;19.43;;
15307;SDS011;7755;52.208;6.964;2023-06-22T05:29:01;26.67;;;24.07;;
15307;SDS011;7755;52.208;6.964;2023-06-22T05:33:05;21.87;;;19.80;;
15307;SDS011;7755;52.208;6.964;2023-06-22T05:37:09;20.23;;;18.33;;
15307;SDS011;7755;52.208;6.964;2023-06-22T05:41:14;21.10;;;19.10;;
15307;SDS011;7755;52.208;6.964;2023-06-22T05:45:17;22.23;;;20.17;;
15307;SDS011;7755;52.208;6.964;2023-06-22T05:49:19;25.83;;;23.23;;
15307;SDS011;7755;52.208;6.964;2023-06-22T05:53:24;20.77;;;18.83;;
15307;SDS011;7755;52.208;6.964;2023-06-22T05:57:27;21.37;;;19.37;;
15307;SDS011;7755;52.208;6.964;2023-06-22T06:01:30;20.60;;;18.77;;
15307;SDS011;7755;52.208;6.964;2023-06-22T06:05:37;20.73;;;18.63;;
15307;SDS011;7755;52.208;6.964;2023-06-22T06:09:41;19.27;;;17.47;;
15307;SDS011;7755;52.208;6.964;2023-06-22T06:13:45;21.50;;;19.43;;
15307;SDS011;7755;52.208;6.964;2023-06-22T06:17:48;19.23;;;17.50;;
15307;SDS011;7755;52.208;6.964;2023-06-22T06:21:52;17.67;;;15.97;;
15307;SDS011;7755;52.208;6.964;2023-06-22T06:25:57;19.40;;;17.60;;
15307;SDS011;7755;52.208;6.964;2023-06-22T06:30:00;17.77;;;16.07;;
15307;SDS011;7755;52.208;6.964;2023-06-22T06:34:03;18.77;;;17.00;;
15307;SDS011;7755;52.208;6.964;2023-06-22T06:38:06;18.53;;;16.67;;
15307;SDS011;7755;52.208;6.964;2023-06-22T06:42:10;16.53;;;15.07;;
15307;SDS011;7755;52.208;6.964;2023-06-22T06:46:14;15.13;;;13.73;;
15307;SDS011;7755;52.208;6.964;2023-06-22T06:50:17;15.30;;;14.00;;
15307;SDS011;7755;52.208;6.964;2023-06-22T06:54:20;15.67;;;14.27;;
15307;SDS011;7755;52.208;6.964;2023-06-22T06:58:24;16.40;;;15.00;;
15307;SDS011;7755;52.208;6.964;2023-06-22T07:02:27;15.93;;;14.50;;
15307;SDS011;7755;52.208;6.964;2023-06-22T07:06:30;14.30;;;13.07;;
15307;SDS011;7755;52.208;6.964;2023-06-22T07:10:34;13.40;;;12.10;;
15307;SDS011;7755;52.208;6.964;2023-06-22T07:14:38;13.37;;;12.10;;
15307;SDS011;7755;52.208;6.964;2023-06-22T07:18:41;13.57;;;12.27;;
15307;SDS011;7755;52.208;6.964;2023-06-22T07:22:44;13.70;;;12.37;;
15307;SDS011;7755;52.208;6.964;2023-06-22T07:26:48;14.40;;;13.00;;
15307;SDS011;7755;52.208;6.964;2023-06-22T07:30:52;13.30;;;12.00;;
15307;SDS011;7755;52.208;6.964;2023-06-22T07:34:55;13.93;;;12.67;;
15307;SDS011;7755;52.208;6.964;2023-06-22T07:38:58;13.17;;;11.87;;
15307;SDS011;7755;52.208;6.964;2023-06-22T07:43:01;12.00;;;10.80;;
15307;SDS011;7755;52.208;6.964;2023-06-22T07:47:06;11.80;;;10.80;;
15307;SDS011;7755;52.208;6.964;2023-06-22T07:51:09;10.70;;;9.80;;
15307;SDS011;7755;52.208;6.964;2023-06-22T07:55:14;10.93;;;9.83;;
15307;SDS011;7755;52.208;6.964;2023-06-22T07:59:17;10.50;;;9.60;;
15307;SDS011;7755;52.208;6.964;2023-06-22T08:03:21;11.80;;;10.70;;
15307;SDS011;7755;52.208;6.964;2023-06-22T08:07:24;12.37;;;11.27;;
15307;SDS011;7755;52.208;6.964;2023-06-22T08:11:27;13.97;;;12.47;;
15307;SDS011;7755;52.208;6.964;2023-06-22T08:15:32;10.70;;;9.80;;
15307;SDS011;7755;52.208;6.964;2023-06-22T08:19:36;10.77;;;9.87;;
15307;SDS011;7755;52.208;6.964;2023-06-22T08:23:39;9.97;;;9.07;;
15307;SDS011;7755;52.208;6.964;2023-06-22T08:27:44;11.30;;;10.33;;
15307;SDS011;7755;52.208;6.964;2023-06-22T08:31:48;12.53;;;11.33;;
15307;SDS011;7755;52.208;6.964;2023-06-22T08:35:52;8.70;;;8.00;;
15307;SDS011;7755;52.208;6.964;2023-06-22T08:39:55;10.67;;;9.67;;
15307;SDS011;7755;52.208;6.964;2023-06-22T08:43:58;9.67;;;8.77;;
15307;SDS011;7755;52.208;6.964;2023-06-22T08:48:01;10.90;;;9.90;;
15307;SDS011;7755;52.208;6.964;2023-06-22T08:56:11;10.90;;;9.90;;
15307;SDS011;7755;52.208;6.964;2023-06-22T09:00:15;12.03;;;11.00;;
15307;SDS011;7755;52.208;6.964;2023-06-22T09:04:21;11.00;;;10.00;;
15307;SDS011;7755;52.208;6.964;2023-06-22T09:08:25;11.77;;;10.67;;
15307;SDS011;7755;52.208;6.964;2023-06-22T09:12:28;10.57;;;9.65;;
15307;SDS011;7755;52.208;6.964;2023-06-22T09:16:34;11.40;;;10.30;;
15307;SDS011;7755;52.208;6.964;2023-06-22T09:20:37;10.53;;;9.57;;
15307;SDS011;7755;52.208;6.964;2023-06-22T09:24:41;11.20;;;9.98;;
15307;SDS011;7755;52.208;6.964;2023-06-22T09:28:44;10.53;;;9.53;;
15307;SDS011;7755;52.208;6.964;2023-06-22T09:32:47;10.40;;;9.50;;
15307;SDS011;7755;52.208;6.964;2023-06-22T09:36:50;11.40;;;10.40;;
15307;SDS011;7755;52.208;6.964;2023-06-22T09:40:54;10.65;;;9.57;;
15307;SDS011;7755;52.208;6.964;2023-06-22T09:44:57;10.73;;;9.82;;
15307;SDS011;7755;52.208;6.964;2023-06-22T09:49:00;10.38;;;9.48;;
15307;SDS011;7755;52.208;6.964;2023-06-22T09:53:03;10.83;;;9.73;;
15307;SDS011;7755;52.208;6.964;2023-06-22T09:57:07;10.67;;;9.67;;
15307;SDS011;7755;52.208;6.964;2023-06-22T10:01:10;9.93;;;9.00;;
15307;SDS011;7755;52.208;6.964;2023-06-22T10:05:13;7.37;;;6.73;;
15307;SDS011;7755;52.208;6.964;2023-06-22T10:09:17;9.57;;;8.67;;
15307;SDS011;7755;52.208;6.964;2023-06-22T10:13:21;9.90;;;8.93;;
15307;SDS011;7755;52.208;6.964;2023-06-22T10:17:24;9.77;;;8.87;;
15307;SDS011;7755;52.208;6.964;2023-06-22T10:21:27;11.50;;;10.40;;
15307;SDS011;7755;52.208;6.964;2023-06-22T10:25:30;10.83;;;9.93;;
15307;SDS011;7755;52.208;6.964;2023-06-22T10:29:34;10.70;;;9.85;;
15307;SDS011;7755;52.208;6.964;2023-06-22T10:33:37;10.87;;;9.97;;
15307;SDS011;7755;52.208;6.964;2023-06-22T10:37:43;11.23;;;10.27;;
15307;SDS011;7755;52.208;6.964;2023-06-22T10:41:46;11.97;;;10.87;;
15307;SDS011;7755;52.208;6.964;2023-06-22T10:45:50;13.33;;;12.13;;
15307;SDS011;7755;52.208;6.964;2023-06-22T10:49:53;12.95;;;11.82;;
15307;SDS011;7755;52.208;6.964;2023-06-22T10:53:56;12.13;;;10.93;;
15307;SDS011;7755;52.208;6.964;2023-06-22T10:57:59;10.90;;;9.80;;
15307;SDS011;7755;52.208;6.964;2023-06-22T11:02:03;11.73;;;10.77;;
15307;SDS011;7755;52.208;6.964;2023-06-22T11:06:07;12.07;;;10.97;;
15307;SDS011;7755;52.208;6.964;2023-06-22T11:10:10;12.17;;;11.17;;
15307;SDS011;7755;52.208;6.964;2023-06-22T11:14:13;13.30;;;12.17;;
15307;SDS011;7755;52.208;6.964;2023-06-22T11:18:18;12.53;;;11.43;;
15307;SDS011;7755;52.208;6.964;2023-06-22T11:22:21;13.07;;;11.77;;
15307;SDS011;7755;52.208;6.964;2023-06-22T11:26:23;12.93;;;11.73;;
15307;SDS011;7755;52.208;6.964;2023-06-22T11:30:28;13.17;;;11.87;;
15307;SDS011;7755;52.208;6.964;2023-06-22T11:34:33;12.93;;;11.83;;
15307;SDS011;7755;52.208;6.964;2023-06-22T11:38:36;13.27;;;12.03;;
15307;SDS011;7755;52.208;6.964;2023-06-22T11:42:40;10.93;;;9.80;;
15307;SDS011;7755;52.208;6.964;2023-06-22T11:46:43;15.13;;;13.67;;
15307;SDS011;7755;52.208;6.964;2023-06-22T11:50:47;12.33;;;11.13;;
15307;SDS011;7755;52.208;6.964;2023-06-22T11:54:50;12.93;;;11.83;;
15307;SDS011;7755;52.208;6.964;2023-06-22T11:58:53;12.50;;;11.40;;
15307;SDS011;7755;52.208;6.964;2023-06-22T12:02:56;12.00;;;10.90;;
15307;SDS011;7755;52.208;6.964;2023-06-22T12:07:03;12.45;;;11.35;;
15307;SDS011;7755;52.208;6.964;2023-06-22T12:11:06;12.63;;;11.43;;
15307;SDS011;7755;52.208;6.964;2023-06-22T12:15:09;12.10;;;11.00;;
15307;SDS011;7755;52.208;6.964;2023-06-22T12:19:12;11.70;;;10.70;;
15307;SDS011;7755;52.208;6.964;2023-06-22T12:23:17;12.67;;;11.33;;
15307;SDS011;7755;52.208;6.964;2023-06-22T12:27:21;12.27;;;11.17;;
15307;SDS011;7755;52.208;6.964;2023-06-22T12:31:24;11.40;;;10.40;;
15307;SDS011;7755;52.208;6.964;2023-06-22T12:39:34;12.07;;;10.97;;
15307;SDS011;7755;52.208;6.964;2023-06-22T12:43:37;11.83;;;10.73;;
15307;SDS011;7755;52.208;6.964;2023-06-22T12:47:40;13.57;;;12.27;;
15307;SDS011;7755;52.208;6.964;2023-06-22T12:51:43;13.17;;;11.97;;
15307;SDS011;7755;52.208;6.964;2023-06-22T12:55:48;12.60;;;11.47;;
15307;SDS011;7755;52.208;6.964;2023-06-22T12:59:50;12.70;;;11.67;;
15307;SDS011;7755;52.208;6.964;2023-06-22T13:03:53;14.90;;;13.40;;
15307;SDS011;7755;52.208;6.964;2023-06-22T13:07:56;18.23;;;16.40;;
15307;SDS011;7755;52.208;6.964;2023-06-22T13:12:01;17.27;;;15.67;;
15307;SDS011;7755;52.208;6.964;2023-06-22T13:16:03;18.40;;;16.80;;
15307;SDS011;7755;52.208;6.964;2023-06-22T13:20:07;16.03;;;14.47;;
15307;SDS011;7755;52.208;6.964;2023-06-22T13:24:10;18.13;;;16.53;;
15307;SDS011;7755;52.208;6.964;2023-06-22T13:28:15;18.80;;;17.00;;
15307;SDS011;7755;52.208;6.964;2023-06-22T13:32:29;19.17;;;17.40;;
15307;SDS011;7755;52.208;6.964;2023-06-22T13:36:32;23.17;;;21.03;;
15307;SDS011;7755;52.208;6.964;2023-06-22T13:40:35;24.20;;;22.00;;
15307;SDS011;7755;52.208;6.964;2023-06-22T13:44:40;21.50;;;19.43;;
15307;SDS011;7755;52.208;6.964;2023-06-22T13:48:43;23.30;;;21.10;;
15307;SDS011;7755;52.208;6.964;2023-06-22T13:52:46;24.40;;;22.10;;
15307;SDS011;7755;52.208;6.964;2023-06-22T13:56:49;24.17;;;21.90;;
15307;SDS011;7755;52.208;6.964;2023-06-22T14:00:53;24.87;;;22.43;;
15307;SDS011;7755;52.208;6.964;2023-06-22T14:04:57;24.07;;;21.80;;
15307;SDS011;7755;52.208;6.964;2023-06-22T14:09:00;23.87;;;21.33;;
15307;SDS011;7755;52.208;6.964;2023-06-22T14:13:04;25.00;;;22.77;;
15307;SDS011;7755;52.208;6.964;2023-06-22T14:17:09;23.77;;;21.60;;
15307;SDS011;7755;52.208;6.964;2023-06-22T14:21:12;25.47;;;23.17;;
15307;SDS011;7755;52.208;6.964;2023-06-22T14:25:15;24.37;;;22.17;;
15307;SDS011;7755;52.208;6.964;2023-06-22T14:29:18;26.13;;;23.47;;
15307;SDS011;7755;52.208;6.964;2023-06-22T14:33:22;24.77;;;22.57;;
15307;SDS011;7755;52.208;6.964;2023-06-22T14:37:25;23.73;;;21.40;;
15307;SDS011;7755;52.208;6.964;2023-06-22T14:41:28;25.20;;;23.00;;
15307;SDS011;7755;52.208;6.964;2023-06-22T14:45:31;25.10;;;22.80;;
15307;SDS011;7755;52.208;6.964;2023-06-22T14:49:36;25.77;;;23.23;;
15307;SDS011;7755;52.208;6.964;2023-06-22T14:53:38;23.80;;;21.53;;
15307;SDS011;7755;52.208;6.964;2023-06-22T14:57:42;26.20;;;23.80;;
15307;SDS011;7755;52.208;6.964;2023-06-22T15:01:45;26.07;;;23.83;;
15307;SDS011;7755;52.208;6.964;2023-06-22T15:05:50;24.10;;;21.90;;
15307;SDS011;7755;52.208;6.964;2023-06-22T15:09:53;22.90;;;20.90;;
15307;SDS011;7755;52.208;6.964;2023-06-22T15:13:57;24.93;;;22.70;;
15307;SDS011;7755;52.208;6.964;2023-06-22T15:18:01;23.97;;;21.77;;
15307;SDS011;7755;52.208;6.964;2023-06-22T15:22:06;24.10;;;22.00;;
15307;SDS011;7755;52.208;6.964;2023-06-22T15:26:09;24.53;;;22.23;;
15307;SDS011;7755;52.208;6.964;2023-06-22T15:30:13;22.73;;;20.63;;
15307;SDS011;7755;52.208;6.964;2023-06-22T15:34:16;23.73;;;21.57;;
15307;SDS011;7755;52.208;6.964;2023-06-22T15:38:21;22.23;;;20.30;;
15307;SDS011;7755;52.208;6.964;2023-06-22T15:42:24;23.10;;;20.80;;
15307;SDS011;7755;52.208;6.964;2023-06-22T15:46:27;20.90;;;18.90;;
15307;SDS011;7755;52.208;6.964;2023-06-22T15:50:29;20.10;;;18.40;;
15307;SDS011;7755;52.208;6.964;2023-06-22T15:54:34;22.23;;;20.30;;
15307;SDS011;7755;52.208;6.964;2023-06-22T15:58:37;21.27;;;19.27;;
15307;SDS011;7755;52.208;6.964;2023-06-22T16:02:41;18.70;;;16.93;;
15307;SDS011;7755;52.208;6.964;2023-06-22T16:06:44;21.50;;;19.60;;
15307;SDS011;7755;52.208;6.964;2023-06-22T16:10:48;20.47;;;18.47;;
15307;SDS011;7755;52.208;6.964;2023-06-22T16:14:51;17.87;;;16.27;;
15307;SDS011;7755;52.208;6.964;2023-06-22T16:18:54;19.27;;;17.40;;
15307;SDS011;7755;52.208;6.964;2023-06-22T16:22:56;19.43;;;17.60;;
15307;SDS011;7755;52.208;6.964;2023-06-22T16:27:01;18.43;;;16.80;;
15307;SDS011;7755;52.208;6.964;2023-06-22T16:31:04;21.20;;;19.30;;
15307;SDS011;7755;52.208;6.964;2023-06-22T16:35:07;20.67;;;18.70;;
15307;SDS011;7755;52.208;6.964;2023-06-22T16:39:10;22.10;;;20.10;;
15307;SDS011;7755;52.208;6.964;2023-06-22T16:43:14;21.83;;;19.63;;
15307;SDS011;7755;52.208;6.964;2023-06-22T16:47:17;20.90;;;19.13;;
15307;SDS011;7755;52.208;6.964;2023-06-22T16:51:20;22.70;;;20.50;;
15307;SDS011;7755;52.208;6.964;2023-06-22T16:55:23;20.53;;;18.63;;
15307;SDS011;7755;52.208;6.964;2023-06-22T16:59:27;18.87;;;17.17;;
15307;SDS011;7755;52.208;6.964;2023-06-22T17:03:33;23.00;;;20.83;;
15307;SDS011;7755;52.208;6.964;2023-06-22T17:07:41;22.40;;;20.23;;
15307;SDS011;7755;52.208;6.964;2023-06-22T17:11:50;19.13;;;17.43;;
15307;SDS011;7755;52.208;6.964;2023-06-22T17:15:56;24.20;;;22.00;;
15307;SDS011;7755;52.208;6.964;2023-06-22T17:20:02;30.67;;;27.60;;
15307;SDS011;7755;52.208;6.964;2023-06-22T17:24:05;26.77;;;24.13;;
15307;SDS011;7755;52.208;6.964;2023-06-22T17:28:08;30.57;;;27.37;;
15307;SDS011;7755;52.208;6.964;2023-06-22T17:32:13;26.40;;;23.90;;
15307;SDS011;7755;52.208;6.964;2023-06-22T17:36:15;29.70;;;26.67;;
15307;SDS011;7755;52.208;6.964;2023-06-22T17:40:19;28.40;;;25.63;;
15307;SDS011;7755;52.208;6.964;2023-06-22T17:44:26;35.13;;;31.67;;
15307;SDS011;7755;52.208;6.964;2023-06-22T17:48:31;36.70;;;32.80;;
15307;SDS011;7755;52.208;6.964;2023-06-22T17:52:34;37.03;;;33.33;;
15307;SDS011;7755;52.208;6.964;2023-06-22T17:56:36;40.60;;;36.27;;
15307;SDS011;7755;52.208;6.964;2023-06-22T18:00:40;39.60;;;35.60;;
15307;SDS011;7755;52.208;6.964;2023-06-22T18:04:45;40.83;;;36.83;;
15307;SDS011;7755;52.208;6.964;2023-06-22T18:08:48;30.63;;;27.53;;
15307;SDS011;7755;52.208;6.964;2023-06-22T18:12:53;27.10;;;24.47;;
15307;SDS011;7755;52.208;6.964;2023-06-22T18:16:58;22.13;;;19.93;;
15307;SDS011;7755;52.208;6.964;2023-06-22T18:21:03;18.33;;;16.60;;
15307;SDS011;7755;52.208;6.964;2023-06-22T18:25:07;19.30;;;17.43;;
15307;SDS011;7755;52.208;6.964;2023-06-22T18:29:11;19.57;;;17.63;;
15307;SDS011;7755;52.208;6.964;2023-06-22T18:33:14;22.07;;;19.77;;
15307;SDS011;7755;52.208;6.964;2023-06-22T18:37:18;20.70;;;18.50;;
15307;SDS011;7755;52.208;6.964;2023-06-22T18:41:23;19.13;;;17.07;;
15307;SDS011;7755;52.208;6.964;2023-06-22T18:45:27;18.57;;;16.70;;
15307;SDS011;7755;52.208;6.964;2023-06-22T18:49:32;18.00;;;16.20;;
15307;SDS011;7755;52.208;6.964;2023-06-22T18:53:40;16.10;;;14.40;;
15307;SDS011;7755;52.208;6.964;2023-06-22T18:57:44;17.63;;;15.83;;
15307;SDS011;7755;52.208;6.964;2023-06-22T19:01:47;19.10;;;16.87;;
15307;SDS011;7755;52.208;6.964;2023-06-22T19:05:51;18.13;;;16.43;;
15307;SDS011;7755;52.208;6.964;2023-06-22T19:14:25;17.90;;;16.13;;
15307;SDS011;7755;52.208;6.964;2023-06-22T19:18:31;16.87;;;15.00;;
15307;SDS011;7755;52.208;6.964;2023-06-22T19:26:58;16.63;;;15.03;;
15307;SDS011;7755;52.208;6.964;2023-06-22T19:31:02;14.43;;;12.40;;
15307;SDS011;7755;52.208;6.964;2023-06-22T19:35:07;15.57;;;13.97;;
15307;SDS011;7755;52.208;6.964;2023-06-22T19:39:11;16.27;;;14.67;;
15307;SDS011;7755;52.208;6.964;2023-06-22T19:43:16;12.70;;;11.40;;
15307;SDS011;7755;52.208;6.964;2023-06-22T19:47:20;16.47;;;14.80;;
15307;SDS011;7755;52.208;6.964;2023-06-22T19:51:23;15.63;;;14.03;;
15307;SDS011;7755;52.208;6.964;2023-06-22T19:55:26;14.67;;;13.17;;
15307;SDS011;7755;52.208;6.964;2023-06-22T19:59:30;13.70;;;12.37;;
15307;SDS011;7755;52.208;6.964;2023-06-22T20:03:36;14.30;;;12.83;;
15307;SDS011;7755;52.208;6.964;2023-06-22T20:07:41;13.03;;;11.70;;
15307;SDS011;7755;52.208;6.964;2023-06-22T20:11:45;13.03;;;11.77;;
15307;SDS011;7755;52.208;6.964;2023-06-22T20:15:49;15.13;;;13.30;;
15307;SDS011;7755;52.208;6.964;2023-06-22T20:19:52;16.43;;;14.73;;
15307;SDS011;7755;52.208;6.964;2023-06-22T20:23:56;14.67;;;13.20;;
15307;SDS011;7755;52.208;6.964;2023-06-22T20:28:05;20.17;;;14.57;;
15307;SDS011;7755;52.208;6.964;2023-06-22T20:32:13;9.03;;;8.23;;
15307;SDS011;7755;52.208;6.964;2023-06-22T20:36:16;9.67;;;8.73;;
15307;SDS011;7755;52.208;6.964;2023-06-22T20:40:20;10.90;;;9.90;;
15307;SDS011;7755;52.208;6.964;2023-06-22T20:44:28;13.13;;;11.00;;
15307;SDS011;7755;52.208;6.964;2023-06-22T20:48:32;11.60;;;10.07;;
15307;SDS011;7755;52.208;6.964;2023-06-22T20:52:40;10.27;;;9.30;;
15307;SDS011;7755;52.208;6.964;2023-06-22T20:56:43;10.57;;;9.53;;
15307;SDS011;7755;52.208;6.964;2023-06-22T21:00:46;9.30;;;8.40;;
15307;SDS011;7755;52.208;6.964;2023-06-22T21:04:51;10.07;;;9.07;;
15307;SDS011;7755;52.208;6.964;2023-06-22T21:08:55;10.27;;;9.27;;
15307;SDS011;7755;52.208;6.964;2023-06-22T21:12:59;11.90;;;9.70;;
15307;SDS011;7755;52.208;6.964;2023-06-22T21:17:02;10.50;;;8.97;;
15307;SDS011;7755;52.208;6.964;2023-06-22T21:21:07;11.47;;;10.27;;
15307;SDS011;7755;52.208;6.964;2023-06-22T21:25:10;11.93;;;10.80;;
15307;SDS011;7755;52.208;6.964;2023-06-22T21:29:14;12.20;;;10.90;;
15307;SDS011;7755;52.208;6.964;2023-06-22T21:33:17;12.17;;;10.80;;
15307;SDS011;7755;52.208;6.964;2023-06-22T21:37:21;14.13;;;12.57;;
15307;SDS011;7755;52.208;6.964;2023-06-22T21:41:26;14.67;;;13.17;;
15307;SDS011;7755;52.208;6.964;2023-06-22T21:45:29;15.37;;;13.97;;
15307;SDS011;7755;52.208;6.964;2023-06-22T21:49:33;16.17;;;13.37;;
15307;SDS011;7755;52.208;6.964;2023-06-22T21:53:37;13.97;;;12.57;;
15307;SDS011;7755;52.208;6.964;2023-06-22T21:57:40;15.90;;;13.43;;
15307;SDS011;7755;52.208;6.964;2023-06-22T22:01:43;13.50;;;12.10;;
15307;SDS011;7755;52.208;6.964;2023-06-22T22:05:46;13.43;;;12.13;;
15307;SDS011;7755;52.208;6.964;2023-06-22T22:09:50;12.43;;;10.53;;
15307;SDS011;7755;52.208;6.964;2023-06-22T22:13:55;14.10;;;11.97;;
15307;SDS011;7755;52.208;6.964;2023-06-22T22:17:57;13.83;;;11.77;;
15307;SDS011;7755;52.208;6.964;2023-06-22T22:22:05;12.10;;;10.80;;
15307;SDS011;7755;52.208;6.964;2023-06-22T22:26:09;13.00;;;10.43;;
15307;SDS011;7755;52.208;6.964;2023-06-22T22:30:12;13.27;;;10.23;;
15307;SDS011;7755;52.208;6.964;2023-06-22T22:34:16;12.80;;;11.30;;
15307;SDS011;7755;52.208;6.964;2023-06-22T22:38:20;10.87;;;9.60;;
15307;SDS011;7755;52.208;6.964;2023-06-22T22:42:24;11.13;;;10.03;;
15307;SDS011;7755;52.208;6.964;2023-06-22T22:46:27;10.63;;;9.53;;
15307;SDS011;7755;52.208;6.964;2023-06-22T22:50:31;9.70;;;8.70;;
15307;SDS011;7755;52.208;6.964;2023-06-22T22:54:34;8.77;;;7.87;;
15307;SDS011;7755;52.208;6.964;2023-06-22T22:58:38;9.40;;;8.43;;
15307;SDS011;7755;52.208;6.964;2023-06-22T23:02:41;9.47;;;8.50;;
15307;SDS011;7755;52.208;6.964;2023-06-22T23:06:44;11.37;;;10.17;;
15307;SDS011;7755;52.208;6.964;2023-06-22T23:10:47;11.63;;;10.27;;
15307;SDS011;7755;52.208;6.964;2023-06-22T23:14:52;12.37;;;9.97;;
15307;SDS011;7755;52.208;6.964;2023-06-22T23:18:54;11.37;;;9.83;;
15307;SDS011;7755;52.208;6.964;2023-06-22T23:22:57;12.77;;;9.27;;
15307;SDS011;7755;52.208;6.964;2023-06-22T23:27:00;11.03;;;9.93;;
15307;SDS011;7755;52.208;6.964;2023-06-22T23:31:05;12.57;;;10.70;;
15307;SDS011;7755;52.208;6.964;2023-06-22T23:35:10;13.00;;;11.00;;
15307;SDS011;7755;52.208;6.964;2023-06-22T23:39:15;13.33;;;11.00;;
15307;SDS011;7755;52.208;6.964;2023-06-22T23:43:18;11.97;;;10.77;;
15307;SDS011;7755;52.208;6.964;2023-06-22T23:47:22;13.10;;;11.23;;
15307;SDS011;7755;52.208;6.964;2023-06-22T23:51:28;15.53;;;13.00;;
15307;SDS011;7755;52.208;6.964;2023-06-22T23:55:31;13.20;;;11.60;;
15307;SDS011;7755;52.208;6.964;2023-06-22T23:59:34;13.73;;;12.13;;
